Time;durP1;ratioP1;P1;durP2;ratioP2;P2;SDS_P1;SDS_P2;PMS_P1;PMS_P2;Temp;Humidity;BMP_temperature;BMP_pressure;BME280_temperature;BME280_humidity;BME280_pressure;Samples;Min_cycle;Max_cycle;Signal;HPM_P1;HPM_P2
2022/12/13 00:02:06;;;;;;;42.43;23.80;;;-6.10;99.90;;;;;;4959477;29;20197;-88
2022/12/13 00:04:32;;;;;;;36.23;22.60;;;-6.20;99.90;;;;;;4944698;29;20205;-88
2022/12/13 00:06:58;;;;;;;41.47;21.83;;;-6.20;99.90;;;;;;4961403;29;20201;-89
2022/12/13 00:09:23;;;;;;;36.43;22.77;;;-6.20;99.90;;;;;;4960618;29;20201;-90
2022/12/13 00:11:49;;;;;;;54.07;48.23;;;-6.20;99.90;;;;;;4968067;28;20240;-88
2022/12/13 00:14:15;;;;;;;29.50;20.87;;;-6.30;99.90;;;;;;4980479;28;20173;-89
2022/12/13 00:16:45;;;;;;;29.50;20.10;;;-6.30;99.90;;;;;;4965247;28;20262;-89
2022/12/13 00:19:12;;;;;;;34.97;23.93;;;-6.30;99.90;;;;;;4964625;28;20198;-87
2022/12/13 00:21:38;;;;;;;31.97;21.30;;;-6.40;99.90;;;;;;4947744;28;20189;-89
2022/12/13 00:24:05;;;;;;;35.20;21.93;;;-6.40;99.90;;;;;;4943861;29;20233;-89
2022/12/13 00:26:31;;;;;;;32.90;21.07;;;-6.50;99.90;;;;;;4943973;29;20718;-89
2022/12/13 00:29:03;;;;;;;35.10;21.70;;;-6.50;99.90;;;;;;4951401;28;20185;-88
2022/12/13 00:31:32;;;;;;;44.43;21.90;;;-6.50;99.90;;;;;;4965442;28;20221;-89
2022/12/13 00:33:59;;;;;;;41.60;22.57;;;-6.50;99.90;;;;;;4956987;28;20182;-88
2022/12/13 00:36:25;;;;;;;36.90;21.00;;;-6.50;99.90;;;;;;4963637;28;20174;-88
2022/12/13 00:38:59;;;;;;;31.33;21.43;;;-6.50;99.90;;;;;;4953351;28;20197;-88
2022/12/13 00:41:27;;;;;;;30.27;20.40;;;-6.60;99.90;;;;;;4946848;29;20190;-89
2022/12/13 00:43:53;;;;;;;29.43;19.37;;;-6.50;99.90;;;;;;4945853;29;20185;-88
2022/12/13 00:46:21;;;;;;;33.77;21.30;;;-6.50;99.90;;;;;;4943280;29;20193;-89
2022/12/13 00:48:52;;;;;;;31.37;20.77;;;-6.50;99.90;;;;;;4960189;29;20682;-89
2022/12/13 00:51:18;;;;;;;39.37;22.53;;;-6.50;99.90;;;;;;4943225;29;20209;-89
2022/12/13 00:53:44;;;;;;;34.37;20.33;;;-6.50;99.90;;;;;;4942625;29;20181;-89
2022/12/13 00:56:16;;;;;;;33.00;20.83;;;-6.50;99.90;;;;;;4941308;29;20617;-89
2022/12/13 00:58:42;;;;;;;36.33;21.07;;;-6.50;99.90;;;;;;4942342;29;20165;-89
2022/12/13 01:01:11;;;;;;;31.27;21.07;;;-6.60;99.90;;;;;;4971905;28;20254;-88
2022/12/13 01:03:38;;;;;;;37.50;20.90;;;-6.60;99.90;;;;;;4980603;28;20177;-89
2022/12/13 01:06:19;;;;;;;34.17;19.77;;;-6.60;99.90;;;;;;4956416;28;20178;-89
2022/12/13 01:08:45;;;;;;;36.40;21.00;;;-6.70;99.90;;;;;;4940975;29;20292;-89
2022/12/13 01:11:12;;;;;;;33.80;21.60;;;-6.60;99.90;;;;;;4941085;29;20217;-88
2022/12/13 01:13:39;;;;;;;33.40;21.67;;;-6.70;99.90;;;;;;4949992;28;20201;-89
2022/12/13 01:16:07;;;;;;;31.27;21.53;;;-6.70;99.90;;;;;;4964887;28;20177;-89
2022/12/13 01:18:34;;;;;;;33.40;20.83;;;-6.70;99.90;;;;;;4979918;28;20269;-89
2022/12/13 01:21:09;;;;;;;41.63;23.47;;;-6.70;99.90;;;;;;4950187;29;20595;-89
2022/12/13 01:23:35;;;;;;;33.03;20.10;;;-6.70;99.90;;;;;;4940842;29;20232;-89
2022/12/13 01:26:03;;;;;;;30.87;20.47;;;-6.60;99.90;;;;;;4956597;29;20562;-89
2022/12/13 01:28:29;;;;;;;32.43;19.90;;;-6.70;99.90;;;;;;4939769;29;20678;-89
2022/12/13 01:31:06;;;;;;;35.77;20.63;;;-6.60;99.90;;;;;;4940029;29;20209;-89
2022/12/13 01:33:32;;;;;;;37.30;20.63;;;-6.60;99.90;;;;;;4940243;29;20718;-89
2022/12/13 01:36:04;;;;;;;33.87;21.13;;;-6.60;99.90;;;;;;4940140;29;20178;-89
2022/12/13 01:38:34;;;;;;;37.33;21.57;;;-6.60;99.90;;;;;;4949570;28;20205;-88
2022/12/13 01:41:00;;;;;;;29.27;18.20;;;-6.60;99.90;;;;;;4942327;29;20253;-89
2022/12/13 01:43:50;;;;;;;31.13;20.17;;;-6.60;99.90;;;;;;4942411;29;20544;-88
2022/12/13 01:46:17;;;;;;;32.23;21.17;;;-6.70;99.90;;;;;;4946793;29;20656;-89
2022/12/13 01:48:56;;;;;;;33.40;20.87;;;-6.60;99.90;;;;;;4949099;29;20188;-89
2022/12/13 01:51:28;;;;;;;34.27;20.23;;;-6.60;99.90;;;;;;4940512;29;20221;-89
2022/12/13 01:53:58;;;;;;;32.40;19.70;;;-6.60;99.90;;;;;;4939936;29;20559;-88
2022/12/13 01:56:35;;;;;;;39.87;21.67;;;-6.70;99.90;;;;;;4940960;29;20202;-89
2022/12/13 01:59:12;;;;;;;35.23;21.13;;;-6.80;99.90;;;;;;4940519;29;20623;-88
2022/12/13 02:01:38;;;;;;;34.70;20.77;;;-6.90;99.90;;;;;;4940127;29;20309;-88
2022/12/13 02:04:05;;;;;;;31.47;20.37;;;-6.80;99.90;;;;;;4940955;29;20236;-89
2022/12/13 02:06:38;;;;;;;35.00;20.57;;;-6.80;99.90;;;;;;4975145;28;20182;-87
2022/12/13 02:09:06;;;;;;;37.70;23.17;;;-7.00;99.90;;;;;;4963579;28;20254;-87
2022/12/13 02:11:34;;;;;;;36.70;20.73;;;-7.00;99.90;;;;;;4975202;28;20675;-88
2022/12/13 02:14:00;;;;;;;34.07;21.63;;;-6.90;99.90;;;;;;4956119;29;20186;-88
2022/12/13 02:16:28;;;;;;;33.57;21.77;;;-6.90;99.90;;;;;;4954740;29;20182;-88
2022/12/13 02:19:29;;;;;;;34.43;22.30;;;-7.00;99.90;;;;;;4954715;29;20189;-88
2022/12/13 02:22:08;;;;;;;31.63;20.37;;;-6.90;99.90;;;;;;4939148;29;20208;-88
2022/12/13 02:24:47;;;;;;;39.17;23.10;;;-7.00;99.90;;;;;;4956679;29;20276;-88
2022/12/13 02:27:51;;;;;;;34.93;21.90;;;-7.10;99.90;;;;;;4938417;29;20187;-88
2022/12/13 02:30:21;;;;;;;38.13;22.93;;;-6.80;99.90;;;;;;4939400;29;20247;-87
2022/12/13 02:33:14;;;;;;;34.80;20.43;;;-6.90;99.90;;;;;;4955283;29;20308;-88
2022/12/13 02:35:46;;;;;;;42.23;24.00;;;-6.90;99.90;;;;;;4954793;29;20178;-88
2022/12/13 02:38:28;;;;;;;36.03;20.63;;;-7.00;99.90;;;;;;4957725;29;20182;-88
2022/12/13 02:41:04;;;;;;;35.13;21.57;;;-7.10;99.90;;;;;;4947352;29;20566;-88
2022/12/13 02:43:58;;;;;;;39.37;21.60;;;-7.10;99.90;;;;;;4946759;28;20281;-88
2022/12/13 02:46:35;;;;;;;40.67;21.07;;;-7.00;99.90;;;;;;4975853;28;20192;-87
2022/12/13 02:49:04;;;;;;;35.53;20.53;;;-7.00;99.90;;;;;;4962303;28;20170;-87
2022/12/13 02:51:31;;;;;;;39.73;21.63;;;-7.10;99.90;;;;;;4941908;29;20213;-89
2022/12/13 02:53:57;;;;;;;34.27;20.80;;;-7.00;99.90;;;;;;4952017;28;20188;-87
2022/12/13 02:56:23;;;;;;;34.93;21.00;;;-7.20;99.90;;;;;;4962614;28;20257;-86
2022/12/13 02:58:53;;;;;;;26.87;18.43;;;-7.10;99.90;;;;;;4967967;28;20174;-86
2022/12/13 03:01:46;;;;;;;30.07;18.50;;;-7.20;99.90;;;;;;4965739;28;20225;-87
2022/12/13 03:04:26;;;;;;;39.60;21.73;;;-7.10;99.90;;;;;;4946882;29;20197;-88
2022/12/13 03:07:19;;;;;;;35.13;20.67;;;-7.10;99.90;;;;;;4944768;29;20189;-88
2022/12/13 03:09:58;;;;;;;29.50;20.13;;;-7.10;99.90;;;;;;4944722;29;20202;-88
2022/12/13 03:15:22;;;;;;;39.93;21.70;;;-7.00;99.90;;;;;;4969918;28;20169;-88
2022/12/13 03:18:14;;;;;;;38.30;20.07;;;-6.90;99.90;;;;;;4960399;29;20217;-86
2022/12/13 03:21:13;;;;;;;28.03;16.90;;;-7.10;99.90;;;;;;4951268;29;20674;-87
2022/12/13 03:30:40;;;;;;;32.63;18.30;;;-7.10;99.90;;;;;;4963610;28;20224;-85
2022/12/13 03:33:14;;;;;;;37.73;21.03;;;-7.20;99.90;;;;;;4946947;28;20189;-84
2022/12/13 03:35:53;;;;;;;31.60;19.47;;;-7.10;99.90;;;;;;4944184;29;20284;-87
2022/12/13 03:38:22;;;;;;;34.57;20.03;;;-7.10;99.90;;;;;;4943097;29;20197;-86
2022/12/13 03:41:04;;;;;;;33.13;20.33;;;-7.00;99.90;;;;;;4943215;29;20740;-86
2022/12/13 03:43:30;;;;;;;31.90;20.10;;;-7.20;99.90;;;;;;4944086;29;20193;-86
2022/12/13 03:45:56;;;;;;;29.90;17.80;;;-7.20;99.90;;;;;;4957901;29;20257;-86
2022/12/13 03:48:22;;;;;;;30.07;19.17;;;-7.20;99.90;;;;;;4941662;29;20236;-87
2022/12/13 03:50:52;;;;;;;32.47;20.37;;;-7.20;99.90;;;;;;4940989;29;20212;-87
2022/12/13 03:53:19;;;;;;;33.70;19.30;;;-7.20;99.90;;;;;;4942079;29;20181;-87
2022/12/13 03:55:46;;;;;;;31.73;20.37;;;-7.30;99.90;;;;;;4941846;29;20178;-87
2022/12/13 03:58:12;;;;;;;30.93;18.53;;;-7.20;99.90;;;;;;4941400;29;20201;-87
2022/12/13 04:00:38;;;;;;;26.97;18.97;;;-7.30;99.90;;;;;;4943317;29;20208;-87
2022/12/13 04:03:09;;;;;;;35.10;19.97;;;-7.40;99.90;;;;;;4942266;29;20202;-87
2022/12/13 04:05:38;;;;;;;32.37;20.00;;;-7.40;99.90;;;;;;4943571;29;20208;-87
2022/12/13 04:08:11;;;;;;;31.17;19.20;;;-7.40;99.90;;;;;;4959946;29;20658;-86
2022/12/13 04:10:37;;;;;;;33.20;21.00;;;-7.30;99.90;;;;;;4959232;28;20220;-86
2022/12/13 04:16:04;;;;;;;38.27;21.43;;;-7.30;99.90;;;;;;4948088;29;20201;-86
2022/12/13 04:18:30;;;;;;;35.80;19.27;;;-7.30;99.90;;;;;;4941637;29;20868;-75
2022/12/13 04:20:56;;;;;;;27.87;18.03;;;-7.40;99.90;;;;;;4955210;29;20289;-68
2022/12/13 04:23:22;;;;;;;33.63;19.20;;;-7.40;99.90;;;;;;4955299;29;20186;-69
2022/12/13 04:25:48;;;;;;;29.00;17.87;;;-7.30;99.90;;;;;;4937657;29;20185;-69
2022/12/13 04:28:14;;;;;;;41.00;20.50;;;-7.40;99.90;;;;;;4954476;29;20268;-68
2022/12/13 04:30:39;;;;;;;32.20;19.53;;;-7.30;99.90;;;;;;4954619;29;20202;-68
2022/12/13 04:33:05;;;;;;;33.63;19.40;;;-7.30;99.90;;;;;;4955037;29;20189;-69
2022/12/13 04:35:31;;;;;;;31.33;20.53;;;-7.50;99.90;;;;;;4954811;29;20213;-68
2022/12/13 04:37:57;;;;;;;27.33;17.80;;;-7.50;99.90;;;;;;4954205;29;20212;-68
2022/12/13 04:40:23;;;;;;;33.33;19.23;;;-7.60;99.90;;;;;;4954544;29;20268;-69
2022/12/13 04:42:49;;;;;;;33.93;20.20;;;-7.50;99.90;;;;;;4954643;29;20193;-69
2022/12/13 04:45:16;;;;;;;32.60;19.57;;;-7.50;99.90;;;;;;4954432;29;20182;-69
2022/12/13 04:47:42;;;;;;;31.07;19.70;;;-7.50;99.90;;;;;;4945446;29;20269;-69
2022/12/13 04:50:08;;;;;;;28.13;18.20;;;-7.50;99.90;;;;;;4942197;29;20308;-69
2022/12/13 04:52:34;;;;;;;29.17;18.87;;;-7.60;99.90;;;;;;4952575;29;20209;-69
2022/12/13 04:55:00;;;;;;;29.23;19.47;;;-7.70;99.90;;;;;;4932691;29;20826;-70
2022/12/13 04:57:26;;;;;;;32.53;20.40;;;-7.70;99.90;;;;;;4953960;29;20178;-70
2022/12/13 04:59:51;;;;;;;32.43;18.57;;;-7.60;99.90;;;;;;4936921;29;20198;-69
2022/12/13 05:02:17;;;;;;;29.90;20.07;;;-7.60;99.90;;;;;;4953998;29;20543;-70
2022/12/13 05:04:44;;;;;;;25.87;18.27;;;-7.60;99.90;;;;;;4954129;29;20675;-70
2022/12/13 05:07:10;;;;;;;30.60;20.00;;;-7.60;99.90;;;;;;4953561;29;20190;-70
2022/12/13 05:09:36;;;;;;;32.47;19.77;;;-7.70;99.90;;;;;;4954046;29;20218;-70
2022/12/13 05:12:02;;;;;;;28.90;18.77;;;-7.70;99.90;;;;;;4931632;29;20791;-70
2022/12/13 05:14:31;;;;;;;30.63;19.60;;;-7.60;99.90;;;;;;4944461;29;20284;-69
2022/12/13 05:16:59;;;;;;;33.97;20.30;;;-7.70;99.90;;;;;;4954147;29;20196;-71
2022/12/13 05:19:25;;;;;;;33.10;20.17;;;-7.70;99.90;;;;;;4953784;29;20247;-70
2022/12/13 05:21:50;;;;;;;23.10;16.57;;;-7.70;99.90;;;;;;4954335;28;20655;-70
2022/12/13 05:24:17;;;;;;;34.93;18.23;;;-7.70;99.90;;;;;;4954839;29;20658;-70
2022/12/13 05:26:43;;;;;;;31.17;18.83;;;-7.70;99.90;;;;;;4955157;29;20663;-70
2022/12/13 05:29:09;;;;;;;36.27;19.87;;;-7.70;99.90;;;;;;4954083;29;20273;-70
2022/12/13 05:31:35;;;;;;;26.33;19.67;;;-7.70;99.90;;;;;;4936728;29;20703;-70
2022/12/13 05:34:00;;;;;;;31.70;18.07;;;-7.60;99.90;;;;;;4936647;29;20174;-70
2022/12/13 05:36:27;;;;;;;35.40;21.07;;;-7.60;99.90;;;;;;4940083;28;20193;-70
2022/12/13 05:38:52;;;;;;;35.30;20.70;;;-7.70;99.90;;;;;;4952140;29;20238;-70
2022/12/13 05:41:23;;;;;;;34.17;20.47;;;-7.70;99.90;;;;;;4954275;29;20190;-70
2022/12/13 05:43:50;;;;;;;27.40;19.10;;;-7.80;99.90;;;;;;4953730;29;20293;-70
2022/12/13 05:46:15;;;;;;;39.37;19.30;;;-7.80;99.90;;;;;;4953427;29;20189;-70
2022/12/13 05:48:41;;;;;;;32.57;19.50;;;-7.80;99.90;;;;;;4952957;29;20240;-69
2022/12/13 05:51:08;;;;;;;34.47;21.10;;;-7.80;99.90;;;;;;4953006;29;20197;-70
2022/12/13 05:53:34;;;;;;;28.07;18.80;;;-7.70;99.90;;;;;;4953112;29;20239;-69
2022/12/13 05:56:00;;;;;;;27.63;18.87;;;-7.60;99.90;;;;;;4953266;29;20185;-69
2022/12/13 05:58:26;;;;;;;31.77;20.97;;;-7.50;99.90;;;;;;4952834;29;20193;-69
2022/12/13 06:00:52;;;;;;;32.87;21.03;;;-7.60;99.90;;;;;;4953022;29;20205;-69
2022/12/13 06:03:18;;;;;;;34.60;19.80;;;-7.60;99.90;;;;;;4953200;29;20194;-69
2022/12/13 06:05:44;;;;;;;30.60;19.27;;;-7.70;99.90;;;;;;4952809;29;20605;-69
2022/12/13 06:08:10;;;;;;;38.47;19.47;;;-7.80;99.90;;;;;;4952841;29;20182;-70
2022/12/13 06:10:36;;;;;;;30.20;19.43;;;-7.80;99.90;;;;;;4953095;29;20197;-69
2022/12/13 06:13:03;;;;;;;32.03;20.00;;;-7.80;99.90;;;;;;4952537;29;20820;-70
2022/12/13 06:15:29;;;;;;;29.73;20.13;;;-7.80;99.90;;;;;;4953102;29;20186;-69
2022/12/13 06:17:54;;;;;;;41.17;22.50;;;-7.80;99.90;;;;;;4952610;29;20197;-69
2022/12/13 06:20:20;;;;;;;38.37;19.93;;;-7.80;99.90;;;;;;4935473;29;20701;-69
2022/12/13 06:22:46;;;;;;;31.87;21.60;;;-7.70;99.90;;;;;;4952901;29;20272;-70
2022/12/13 06:25:12;;;;;;;28.87;20.07;;;-7.70;99.90;;;;;;4934852;29;20194;-69
2022/12/13 06:27:38;;;;;;;29.43;18.17;;;-7.80;99.90;;;;;;4951708;29;20276;-69
2022/12/13 06:30:04;;;;;;;29.40;19.67;;;-7.80;99.90;;;;;;4946887;29;20289;-69
2022/12/13 06:32:30;;;;;;;34.07;26.17;;;-7.70;99.90;;;;;;4933597;29;20261;-69
2022/12/13 06:34:55;;;;;;;29.57;19.33;;;-7.70;99.90;;;;;;4916223;29;20187;-69
2022/12/13 06:37:21;;;;;;;35.33;19.97;;;-7.60;99.90;;;;;;4933252;29;20710;-69
2022/12/13 06:39:47;;;;;;;28.60;20.23;;;-7.60;99.90;;;;;;4916604;29;20206;-69
2022/12/13 06:42:16;;;;;;;33.27;21.93;;;-7.60;99.90;;;;;;4933099;29;20226;-69
2022/12/13 06:44:42;;;;;;;28.60;18.70;;;-7.70;99.90;;;;;;4933631;29;20190;-69
2022/12/13 06:47:09;;;;;;;30.33;19.03;;;-7.80;99.90;;;;;;4916563;29;20174;-69
2022/12/13 06:49:35;;;;;;;26.17;17.37;;;-7.80;99.90;;;;;;4933302;29;20715;-69
2022/12/13 06:52:01;;;;;;;35.73;19.53;;;-7.80;99.90;;;;;;4933199;29;20212;-69
2022/12/13 06:54:27;;;;;;;22.63;18.77;;;-7.80;99.90;;;;;;4933263;29;20676;-69
2022/12/13 06:56:52;;;;;;;38.80;24.00;;;-7.80;99.90;;;;;;4932562;29;20218;-69
2022/12/13 06:59:18;;;;;;;27.87;17.23;;;-7.80;99.90;;;;;;4933150;29;20703;-69
2022/12/13 07:01:44;;;;;;;36.57;21.00;;;-7.80;99.90;;;;;;4932966;29;20217;-70
2022/12/13 07:04:11;;;;;;;37.00;23.33;;;-7.70;99.90;;;;;;4933090;29;20270;-70
2022/12/13 07:06:37;;;;;;;35.83;18.60;;;-7.50;99.90;;;;;;4933120;29;20273;-68
2022/12/13 07:09:03;;;;;;;27.63;19.40;;;-7.50;99.90;;;;;;4932867;29;20198;-68
2022/12/13 07:11:31;;;;;;;33.13;19.87;;;-7.50;99.90;;;;;;4915958;29;20186;-68
2022/12/13 07:13:58;;;;;;;28.17;18.60;;;-7.50;99.90;;;;;;4933417;29;20182;-68
2022/12/13 07:16:24;;;;;;;34.97;19.63;;;-7.50;99.90;;;;;;4933119;29;20186;-68
2022/12/13 07:19:00;;;;;;;26.00;19.10;;;-7.50;99.90;;;;;;4932813;29;20194;-68
2022/12/13 07:21:27;;;;;;;30.77;19.90;;;-7.50;99.90;;;;;;4916128;29;20221;-70
2022/12/13 07:23:53;;;;;;;30.57;20.10;;;-7.60;99.90;;;;;;4916158;29;20648;-70
2022/12/13 07:26:19;;;;;;;28.67;19.87;;;-7.50;99.90;;;;;;4932760;29;20190;-70
2022/12/13 07:28:46;;;;;;;34.90;20.97;;;-7.50;99.90;;;;;;4941589;29;20193;-70
2022/12/13 07:31:12;;;;;;;41.80;22.20;;;-7.50;99.90;;;;;;4951296;29;20247;-70
2022/12/13 07:33:39;;;;;;;40.57;24.87;;;-7.50;99.90;;;;;;4952447;29;20749;-69
2022/12/13 07:36:16;;;;;;;33.27;22.50;;;-7.40;99.90;;;;;;4952281;29;20576;-69
2022/12/13 07:38:43;;;;;;;33.07;21.10;;;-7.30;99.90;;;;;;4933948;29;20651;-69
2022/12/13 07:41:09;;;;;;;36.47;21.60;;;-7.30;99.90;;;;;;4934788;29;20213;-69
2022/12/13 07:43:35;;;;;;;43.57;24.13;;;-7.20;99.90;;;;;;4935673;29;20229;-70
2022/12/13 07:46:03;;;;;;;47.37;25.50;;;-7.10;99.90;;;;;;4936802;29;20173;-70
2022/12/13 07:48:29;;;;;;;38.07;22.83;;;-7.10;99.90;;;;;;4955590;29;20182;-69
2022/12/13 07:51:01;;;;;;;42.60;22.10;;;-7.00;99.90;;;;;;4955522;29;20284;-69
2022/12/13 07:53:27;;;;;;;37.70;22.27;;;-7.00;99.90;;;;;;4956416;29;20182;-69
2022/12/13 07:55:53;;;;;;;39.03;24.17;;;-6.90;99.90;;;;;;4956221;29;20196;-69
2022/12/13 07:58:19;;;;;;;33.60;22.20;;;-6.70;99.90;;;;;;4955943;29;20276;-69
2022/12/13 08:00:46;;;;;;;39.93;22.80;;;-6.60;99.90;;;;;;4956403;29;20734;-69
2022/12/13 08:03:12;;;;;;;36.47;23.87;;;-6.40;99.90;;;;;;4955780;29;20213;-69
2022/12/13 08:05:38;;;;;;;43.73;24.37;;;-6.20;99.90;;;;;;4955417;29;20174;-69
2022/12/13 08:08:06;;;;;;;35.43;23.40;;;-6.10;99.90;;;;;;4937996;29;20754;-69
2022/12/13 08:10:32;;;;;;;39.80;24.93;;;-6.00;99.90;;;;;;4955398;29;20198;-69
2022/12/13 08:13:01;;;;;;;41.70;23.63;;;-6.00;99.90;;;;;;4955306;29;20659;-69
2022/12/13 08:15:27;;;;;;;43.53;27.93;;;-5.80;99.90;;;;;;4955287;29;20632;-69
2022/12/13 08:17:59;;;;;;;41.63;27.13;;;-5.60;99.90;;;;;;4954764;29;20190;-69
2022/12/13 08:20:25;;;;;;;38.73;29.20;;;-5.30;99.90;;;;;;4938006;29;20773;-69
2022/12/13 08:22:55;;;;;;;39.97;22.40;;;-5.10;99.90;;;;;;4955112;29;20304;-69
2022/12/13 08:25:21;;;;;;;36.60;25.67;;;-5.00;99.90;;;;;;4937995;29;20189;-69
2022/12/13 08:27:46;;;;;;;48.30;27.43;;;-4.80;99.90;;;;;;4954679;29;20182;-69
2022/12/13 08:30:12;;;;;;;46.00;33.57;;;-4.70;99.90;;;;;;4937846;29;20201;-69
2022/12/13 08:32:38;;;;;;;46.30;40.63;;;-4.60;99.90;;;;;;4954861;29;20224;-69
2022/12/13 08:35:04;;;;;;;38.77;29.37;;;-4.50;99.90;;;;;;4954792;29;20666;-70
2022/12/13 08:37:30;;;;;;;38.27;22.90;;;-4.50;99.90;;;;;;4955521;29;20186;-70
2022/12/13 08:39:55;;;;;;;36.50;24.10;;;-4.40;99.90;;;;;;4954994;29;20340;-70
2022/12/13 08:42:23;;;;;;;39.80;24.57;;;-4.30;99.90;;;;;;4938284;29;20252;-70
2022/12/13 08:44:51;;;;;;;35.93;24.10;;;-4.20;99.90;;;;;;4954900;29;20275;-70
2022/12/13 08:47:18;;;;;;;34.30;23.07;;;-4.00;99.90;;;;;;4938472;29;20178;-70
2022/12/13 08:49:44;;;;;;;30.93;21.23;;;-3.90;99.90;;;;;;4955466;29;20204;-71
2022/12/13 08:52:10;;;;;;;34.03;22.40;;;-3.80;99.90;;;;;;4955425;29;20186;-70
2022/12/13 08:54:35;;;;;;;30.63;19.83;;;-3.70;99.90;;;;;;4954460;29;20181;-70
2022/12/13 08:57:01;;;;;;;32.90;21.70;;;-3.70;99.90;;;;;;4953395;28;20292;-70
2022/12/13 08:59:27;;;;;;;33.27;21.70;;;-3.40;99.90;;;;;;4954218;29;20214;-70
2022/12/13 09:01:53;;;;;;;33.90;22.67;;;-3.20;99.90;;;;;;4954156;29;20578;-70
2022/12/13 09:04:19;;;;;;;33.10;20.87;;;-3.00;99.90;;;;;;4954488;29;20197;-69
2022/12/13 09:06:45;;;;;;;34.33;22.63;;;-2.70;99.90;;;;;;4954184;29;20178;-70
2022/12/13 09:09:10;;;;;;;31.80;23.10;;;-2.10;99.90;;;;;;4954400;29;20207;-69
2022/12/13 09:11:39;;;;;;;31.63;21.37;;;-1.60;99.90;;;;;;4954378;29;20659;-69
2022/12/13 09:14:05;;;;;;;30.00;21.43;;;-1.10;99.90;;;;;;4937099;29;20228;-70
2022/12/13 09:16:35;;;;;;;31.47;20.37;;;-0.60;99.90;;;;;;4936986;29;20185;-69
2022/12/13 09:19:01;;;;;;;29.00;19.07;;;-0.20;99.90;;;;;;4954338;29;20537;-69
2022/12/13 09:21:27;;;;;;;25.27;17.50;;;0.30;99.90;;;;;;4954322;29;20261;-69
2022/12/13 09:23:53;;;;;;;21.37;15.20;;;0.50;99.90;;;;;;4953978;29;20180;-69
2022/12/13 09:26:20;;;;;;;14.93;13.50;;;0.80;99.90;;;;;;4953953;29;20270;-70
2022/12/13 09:28:46;;;;;;;28.20;18.77;;;0.80;99.90;;;;;;4953579;29;20645;-70
2022/12/13 09:31:17;;;;;;;27.57;19.33;;;0.50;99.90;;;;;;4953598;29;20219;-70
2022/12/13 09:33:43;;;;;;;24.30;15.57;;;0.80;99.90;;;;;;4953908;29;20186;-69
2022/12/13 09:36:17;;;;;;;23.07;16.97;;;1.20;99.90;;;;;;4953842;29;20270;-69
2022/12/13 09:38:43;;;;;;;18.93;13.10;;;1.40;99.90;;;;;;4936380;29;20228;-69
2022/12/13 09:41:30;;;;;;;22.07;16.33;;;1.70;99.90;;;;;;4953419;29;20240;-70
2022/12/13 09:44:03;;;;;;;26.83;16.70;;;1.20;99.90;;;;;;4953806;29;20189;-70
2022/12/13 09:46:36;;;;;;;16.20;12.00;;;1.30;99.90;;;;;;4953551;29;20265;-69
2022/12/13 09:49:06;;;;;;;22.27;16.60;;;1.50;99.90;;;;;;4953526;29;20222;-69
2022/12/13 09:51:32;;;;;;;21.40;14.07;;;1.50;99.90;;;;;;4953529;29;20662;-69
2022/12/13 09:53:59;;;;;;;24.07;15.30;;;1.90;99.90;;;;;;4953550;29;20196;-70
2022/12/13 09:56:26;;;;;;;32.80;22.13;;;1.80;99.90;;;;;;4953455;29;20220;-70
2022/12/13 09:58:57;;;;;;;22.47;16.00;;;1.80;99.90;;;;;;4953049;29;20664;-69
2022/12/13 10:01:23;;;;;;;25.50;16.90;;;2.50;99.90;;;;;;4953380;29;20221;-69
2022/12/13 10:03:53;;;;;;;21.60;16.20;;;2.80;99.90;;;;;;4954437;29;20198;-70
2022/12/13 10:06:20;;;;;;;21.50;15.60;;;3.20;99.90;;;;;;4953745;29;20186;-70
2022/12/13 10:08:57;;;;;;;24.27;16.63;;;3.20;99.90;;;;;;4953418;28;20180;-69
2022/12/13 10:11:23;;;;;;;22.30;17.57;;;3.00;99.90;;;;;;4954378;29;20235;-70
2022/12/13 10:14:19;;;;;;;25.43;18.87;;;2.80;99.90;;;;;;4953651;29;20234;-70
2022/12/13 10:16:50;;;;;;;24.07;16.53;;;2.60;99.90;;;;;;4952976;29;20203;-70
2022/12/13 10:19:38;;;;;;;17.03;13.43;;;2.80;99.90;;;;;;4935959;29;20208;-69
2022/12/13 10:22:10;;;;;;;18.40;14.73;;;3.20;99.90;;;;;;4953299;29;20220;-70
2022/12/13 10:24:55;;;;;;;20.97;14.67;;;2.50;99.90;;;;;;4952971;29;20192;-69
2022/12/13 10:27:37;;;;;;;19.27;15.27;;;3.00;99.90;;;;;;4952720;29;20681;-69
2022/12/13 10:30:07;;;;;;;19.90;13.17;;;3.00;99.90;;;;;;4952822;29;20232;-69
2022/12/13 10:33:01;;;;;;;21.33;14.30;;;3.30;99.90;;;;;;4935895;29;20661;-70
2022/12/13 10:35:35;;;;;;;17.63;12.10;;;3.40;99.90;;;;;;4952815;29;20201;-70
2022/12/13 10:38:09;;;;;;;19.67;14.10;;;3.10;99.90;;;;;;4935454;29;20619;-70
2022/12/13 10:40:39;;;;;;;21.97;15.07;;;3.00;99.90;;;;;;4952857;29;20209;-70
2022/12/13 10:43:25;;;;;;;20.47;15.20;;;2.80;99.90;;;;;;4952861;29;20227;-68
2022/12/13 10:46:02;;;;;;;20.77;14.20;;;2.90;99.90;;;;;;4952821;29;20220;-68
2022/12/13 10:48:34;;;;;;;21.27;14.20;;;2.80;99.90;;;;;;4952433;29;20191;-69
2022/12/13 10:51:08;;;;;;;20.87;16.13;;;2.90;99.90;;;;;;4935822;29;20200;-68
2022/12/13 10:53:40;;;;;;;19.60;14.90;;;2.80;99.90;;;;;;4952834;29;20187;-69
2022/12/13 10:56:07;;;;;;;19.97;15.03;;;2.90;99.90;;;;;;4952614;29;20181;-69
2022/12/13 10:58:39;;;;;;;20.00;15.30;;;3.10;99.90;;;;;;4952403;29;20247;-69
2022/12/13 11:01:19;;;;;;;23.93;13.93;;;3.10;99.90;;;;;;4952425;29;20232;-69
2022/12/13 11:04:20;;;;;;;20.20;15.63;;;3.20;99.90;;;;;;4952729;29;20198;-69
2022/12/13 11:06:47;;;;;;;20.23;14.40;;;3.10;99.90;;;;;;4949516;29;20193;-69
2022/12/13 11:09:14;;;;;;;21.17;15.13;;;3.60;99.90;;;;;;4952410;29;20198;-69
2022/12/13 11:11:41;;;;;;;20.57;14.53;;;3.50;99.90;;;;;;4935680;29;20224;-70
2022/12/13 11:14:17;;;;;;;23.77;15.27;;;3.70;99.90;;;;;;4935576;29;20186;-71
2022/12/13 11:16:48;;;;;;;20.47;14.17;;;3.80;99.90;;;;;;4952643;29;20192;-69
2022/12/13 11:19:34;;;;;;;19.13;14.20;;;3.50;99.90;;;;;;4952244;29;20301;-69
2022/12/13 11:22:01;;;;;;;19.47;14.73;;;3.50;99.90;;;;;;4955169;29;20228;-69
2022/12/13 11:24:39;;;;;;;21.70;15.47;;;4.20;99.90;;;;;;4956112;29;20610;-69
2022/12/13 11:27:43;;;;;;;17.47;13.37;;;4.30;99.90;;;;;;4955946;29;20426;-70
2022/12/13 11:30:59;;;;;;;18.03;13.70;;;4.50;99.90;;;;;;4955848;29;20201;-70
2022/12/13 11:33:53;;;;;;;15.83;13.53;;;4.90;99.90;;;;;;4930967;29;20571;-69
2022/12/13 11:37:01;;;;;;;19.27;13.97;;;4.70;99.90;;;;;;4955838;29;20193;-69
2022/12/13 11:39:39;;;;;;;23.73;16.57;;;4.70;99.90;;;;;;4928311;29;20594;-70
2022/12/13 11:42:14;;;;;;;21.53;15.00;;;4.60;99.90;;;;;;4955867;29;20219;-70
2022/12/13 11:45:02;;;;;;;21.53;16.33;;;4.90;99.90;;;;;;4955818;29;20192;-70
2022/12/13 11:47:38;;;;;;;17.03;14.20;;;4.50;99.90;;;;;;4955433;29;20867;-70
2022/12/13 11:50:16;;;;;;;38.20;28.37;;;4.40;99.90;;;;;;4955483;29;20197;-69
2022/12/13 11:52:48;;;;;;;21.53;13.37;;;4.20;99.90;;;;;;4955637;29;20190;-69
2022/12/13 11:55:21;;;;;;;18.70;12.80;;;4.30;99.90;;;;;;4955528;29;20193;-69
2022/12/13 11:58:36;;;;;;;22.53;12.17;;;4.50;99.90;;;;;;4955389;29;20193;-70
2022/12/13 12:01:11;;;;;;;19.13;12.27;;;4.60;99.90;;;;;;4940488;29;20276;-70
2022/12/13 12:04:04;;;;;;;16.43;13.60;;;4.40;99.90;;;;;;4956034;29;20188;-69
2022/12/13 12:06:45;;;;;;;16.67;12.13;;;4.30;99.90;;;;;;4938122;29;20188;-69
2022/12/13 12:09:17;;;;;;;16.53;12.30;;;4.30;99.90;;;;;;4955121;29;20210;-69
2022/12/13 12:11:46;;;;;;;17.80;12.70;;;4.20;99.90;;;;;;4955325;29;20285;-69
2022/12/13 12:14:22;;;;;;;15.07;11.77;;;3.90;99.90;;;;;;4955249;29;20177;-69
2022/12/13 12:16:52;;;;;;;13.83;11.03;;;3.90;99.90;;;;;;4954947;29;20192;-69
2022/12/13 12:19:21;;;;;;;14.77;11.13;;;3.50;99.90;;;;;;4955343;29;20207;-69
2022/12/13 12:22:24;;;;;;;16.67;10.33;;;3.40;99.90;;;;;;4937919;29;20706;-69
2022/12/13 12:25:27;;;;;;;14.80;9.40;;;3.10;99.90;;;;;;4956467;29;20668;-69
2022/12/13 12:28:14;;;;;;;13.93;12.43;;;3.00;99.90;;;;;;4955579;29;20560;-70
2022/12/13 12:30:58;;;;;;;9.27;8.37;;;2.70;99.90;;;;;;4955342;29;20659;-69
2022/12/13 12:33:31;;;;;;;8.77;7.87;;;2.80;99.90;;;;;;4954874;28;20195;-69
2022/12/13 12:36:41;;;;;;;12.67;9.43;;;2.60;99.90;;;;;;4954966;29;20232;-69
2022/12/13 12:39:53;;;;;;;11.47;10.23;;;2.80;99.90;;;;;;4954792;29;20227;-69
2022/12/13 12:42:30;;;;;;;8.83;7.93;;;3.10;99.90;;;;;;4922361;29;20233;-70
2022/12/13 12:45:18;;;;;;;11.53;10.20;;;3.10;99.90;;;;;;4954833;29;20189;-69
2022/12/13 12:48:07;;;;;;;14.57;9.83;;;2.80;99.90;;;;;;4945521;29;20339;-70
2022/12/13 12:50:50;;;;;;;10.50;8.03;;;2.60;99.90;;;;;;4937371;29;20218;-69
2022/12/13 12:53:40;;;;;;;11.53;10.27;;;2.60;99.90;;;;;;4937636;29;20191;-69
2022/12/13 12:56:30;;;;;;;10.77;9.53;;;2.80;99.90;;;;;;4954535;29;20690;-70
2022/12/13 12:59:02;;;;;;;12.40;9.50;;;2.80;99.90;;;;;;4937259;29;20206;-70
2022/12/13 13:01:34;;;;;;;9.73;8.73;;;3.00;99.90;;;;;;4938105;29;20301;-70
2022/12/13 13:04:06;;;;;;;14.07;11.93;;;3.10;99.90;;;;;;5028131;23;20705;-70
2022/12/13 13:06:42;;;;;;;10.07;9.10;;;2.80;99.90;;;;;;5013118;28;20221;-70